Fairplay, CO (80440)

12:12 AM MST on February 10, 2016 (GMT -0700)
Foxtail Pines | | Change Station
CLOSE
Current Station
Personal Weather Station
Location: Fairplay, CO
Elevation: 10240 ft
Nearby Weather Stations

Elev 10240 ft 39.20 °N, 106.04 °W | Updated 5 seconds ago

Partly Cloudy
Partly Cloudy
25.7 °F
Feels Like 26 °F
N
0.4
Wind Variable Wind from NW
Gusts 2.5 mph

Today
High -- | Low -- °F
--% Chance of Precip.
Yesterday
High -- | Low -- °F
Precip. -- in
Pressure 30.37 in
Visibility 10.0 miles
Clouds Clear
Windchill 26 °F
Dew Point -4 °F
Humidity 26%
Rainfall 0.00 in
Snow Depth Not available.
7:02 AM 5:34 PM
Waxing Crescent, 4% visible
METAR KLXV 100653Z AUTO 05004KT 10SM CLR M08/M18 A3049 RMK AO2 SLP283 T10831178 400501122
Pressure 30.37 in
Visibility 10.0 miles
Clouds Clear
Windchill 26 °F
Dew Point -4 °F
Humidity 26%
Rainfall 0.00 in
Snow Depth Not available.
7:02 AM 5:34 PM
Waxing Crescent, 4% visible
METAR KLXV 100653Z AUTO 05004KT 10SM CLR M08/M18 A3049 RMK AO2 SLP283 T10831178 400501122

10-Day Weather Forecast

Almanac

Astronomy

Feb. 10, 2016 Rise Set
Actual Time
Civil Twilight
Nautical Twilight
Astronomical Twilight
Moon
Length of Visible Light
Length of Day
Tomorrow will be .
, % of the Moon is Illuminated

Today's Extremes

State Highs State Lows

Community

WunderPhotos

Upload Photos

1,891,826 photos uploaded!

WunderBlog® & News

Nearby

Air Quality

  Air Quality AQ Index Pollutant
Not available.

Snow Depth

Station Depth Elevation

Earthquake Activity

City Distance Mag. Time & Date
Minimum magnitude displayed is 2.5.

Coastal Water Temperatures

Place Temperature

Stations

Nearby Weather Stations

Station Location Temp. Windchill Dew Point Humidity Wind Precip. Elev Updated Type
                   

Watches & Warnings

There are currently no watches in effect.